CPA979 ZSAM-VHHH
Flight info
| Callsign | CPA979 |
|---|---|
| Flight time | N/A |
| Altitude | 25600 |
| Route | NUSPA7Y NUSPA W597 IKATA A470 BEBEM/N0420F256 A470 DOTMI/N0410F240 V512 ABBEY |
| Aircraft | A21N/M-SDE3FGHIRWY/LB1 |
Departure
| Time | 2026-04-28 10:46 |
|---|---|
| Airport | Xiamen Gaoqi International Airport (ZSAM) |
Arrival
| Time | N/A |
|---|---|
| Airport | Hong Kong International Airport (VHHH) |
| Time | Latitude | Longitude | Altitude | Speed | Heading |
|---|---|---|---|---|---|
| 2026-04-28 10:40 | 24.54922 | 118.14220 | 75 ft | 0 kts | 231° |
| 2026-04-28 10:44 | 24.54916 | 118.14212 | 75 ft | 8 kts | 232° |
| 2026-04-28 10:44 | 24.54932 | 118.14143 | 75 ft | 11 kts | 316° |
| 2026-04-28 10:44 | 24.55031 | 118.14075 | 75 ft | 11 kts | 14° |
| 2026-04-28 10:45 | 24.55098 | 118.14141 | 75 ft | 15 kts | 51° |
| 2026-04-28 10:45 | 24.55178 | 118.14211 | 75 ft | 15 kts | 349° |
| 2026-04-28 10:45 | 24.55276 | 118.14140 | 75 ft | 19 kts | 322° |
| 2026-04-28 10:45 | 24.55291 | 118.13992 | 75 ft | 45 kts | 232° |
| 2026-04-28 10:46 | 24.54929 | 118.13487 | 76 ft | 120 kts | 232° |
| 2026-04-28 10:46 | 24.54293 | 118.12573 | 151 ft | 171 kts | 230° |
| 2026-04-28 10:46 | 24.53557 | 118.11533 | 827 ft | 174 kts | 229° |
| 2026-04-28 10:46 | 24.52831 | 118.10530 | 1637 ft | 172 kts | 229° |
| 2026-04-28 10:47 | 24.52082 | 118.09494 | 2282 ft | 181 kts | 229° |
| 2026-04-28 10:47 | 24.51261 | 118.08353 | 2840 ft | 198 kts | 230° |
| 2026-04-28 10:47 | 24.50380 | 118.07126 | 3397 ft | 214 kts | 230° |
| 2026-04-28 10:47 | 24.49402 | 118.05763 | 3892 ft | 237 kts | 230° |
| 2026-04-28 10:48 | 24.48376 | 118.04329 | 4680 ft | 246 kts | 231° |
| 2026-04-28 10:48 | 24.47335 | 118.02872 | 5684 ft | 245 kts | 231° |
| 2026-04-28 10:48 | 24.46298 | 118.01419 | 6605 ft | 246 kts | 231° |
| 2026-04-28 10:48 | 24.45081 | 118.00071 | 7341 ft | 254 kts | 212° |
| 2026-04-28 10:49 | 24.43376 | 117.99422 | 7844 ft | 273 kts | 189° |
| 2026-04-28 10:49 | 24.41410 | 117.99196 | 8365 ft | 291 kts | 187° |
| 2026-04-28 10:49 | 24.39360 | 117.98952 | 8844 ft | 309 kts | 188° |
| 2026-04-28 10:49 | 24.37148 | 117.98631 | 9291 ft | 326 kts | 193° |
| 2026-04-28 10:50 | 24.35022 | 117.97674 | 9663 ft | 342 kts | 213° |
| 2026-04-28 10:50 | 24.33192 | 117.95875 | 10008 ft | 360 kts | 230° |
| 2026-04-28 10:50 | 24.31628 | 117.93677 | 10318 ft | 377 kts | 232° |
| 2026-04-28 10:50 | 24.29999 | 117.91354 | 10599 ft | 393 kts | 232° |
| 2026-04-28 10:51 | 24.28309 | 117.88960 | 11064 ft | 402 kts | 232° |
| 2026-04-28 10:51 | 24.26585 | 117.86539 | 11744 ft | 405 kts | 232° |
| 2026-04-28 10:51 | 24.24758 | 117.84157 | 12384 ft | 408 kts | 229° |
| 2026-04-28 10:51 | 24.22803 | 117.81886 | 13029 ft | 410 kts | 226° |
| 2026-04-28 10:52 | 24.20788 | 117.79710 | 13620 ft | 413 kts | 225° |
| 2026-04-28 10:52 | 24.18708 | 117.77473 | 14192 ft | 417 kts | 225° |
| 2026-04-28 10:52 | 24.16637 | 117.75250 | 14715 ft | 421 kts | 225° |
| 2026-04-28 10:52 | 24.14549 | 117.73010 | 15241 ft | 424 kts | 225° |
| 2026-04-28 10:53 | 24.12434 | 117.70740 | 15763 ft | 427 kts | 225° |
| 2026-04-28 10:53 | 24.10324 | 117.68475 | 16257 ft | 431 kts | 225° |
| 2026-04-28 10:53 | 24.08160 | 117.66155 | 16728 ft | 434 kts | 225° |
| 2026-04-28 10:53 | 24.05996 | 117.63837 | 17201 ft | 437 kts | 225° |
| 2026-04-28 10:54 | 24.03811 | 117.61496 | 17657 ft | 441 kts | 226° |
| 2026-04-28 10:54 | 24.01617 | 117.59147 | 18110 ft | 443 kts | 225° |
| 2026-04-28 10:54 | 23.99435 | 117.56808 | 18528 ft | 446 kts | 225° |
| 2026-04-28 10:54 | 23.97188 | 117.54400 | 18951 ft | 449 kts | 225° |
| 2026-04-28 10:55 | 23.94978 | 117.52029 | 19319 ft | 452 kts | 225° |
| 2026-04-28 10:55 | 23.92718 | 117.49609 | 19696 ft | 455 kts | 226° |
| 2026-04-28 10:55 | 23.90457 | 117.47189 | 20052 ft | 458 kts | 225° |
| 2026-04-28 10:55 | 23.88177 | 117.44750 | 20420 ft | 460 kts | 226° |
| 2026-04-28 10:56 | 23.86045 | 117.42170 | 20757 ft | 461 kts | 233° |
| 2026-04-28 10:56 | 23.84270 | 117.39255 | 21089 ft | 463 kts | 241° |
| 2026-04-28 10:56 | 23.82883 | 117.36037 | 21413 ft | 465 kts | 249° |
| 2026-04-28 10:56 | 23.81860 | 117.32690 | 21759 ft | 467 kts | 252° |
| 2026-04-28 10:57 | 23.80922 | 117.29347 | 22039 ft | 470 kts | 253° |
| 2026-04-28 10:57 | 23.79975 | 117.25929 | 22332 ft | 472 kts | 253° |
| 2026-04-28 10:57 | 23.79012 | 117.22481 | 22641 ft | 474 kts | 252° |
| 2026-04-28 10:57 | 23.78039 | 117.19070 | 22928 ft | 476 kts | 251° |
| 2026-04-28 10:58 | 23.76772 | 117.15741 | 23204 ft | 478 kts | 244° |
| 2026-04-28 10:58 | 23.75093 | 117.12599 | 23474 ft | 480 kts | 237° |
| 2026-04-28 10:58 | 23.73030 | 117.09695 | 23721 ft | 483 kts | 229° |
| 2026-04-28 10:58 | 23.70754 | 117.07031 | 23976 ft | 484 kts | 227° |
| 2026-04-28 10:59 | 23.68406 | 117.04362 | 24218 ft | 486 kts | 227° |
| 2026-04-28 10:59 | 23.66084 | 117.01739 | 24457 ft | 487 kts | 227° |
| 2026-04-28 10:59 | 23.63725 | 116.99074 | 24707 ft | 488 kts | 227° |
| 2026-04-28 10:59 | 23.61356 | 116.96388 | 25003 ft | 487 kts | 227° |
| 2026-04-28 11:00 | 23.59020 | 116.93737 | 25315 ft | 486 kts | 227° |
| 2026-04-28 11:00 | 23.56676 | 116.91074 | 25481 ft | 483 kts | 227° |
| 2026-04-28 11:00 | 23.54360 | 116.88442 | 25486 ft | 481 kts | 227° |
| 2026-04-28 11:00 | 23.52047 | 116.85812 | 25487 ft | 481 kts | 227° |
| 2026-04-28 11:01 | 23.49756 | 116.83210 | 25487 ft | 480 kts | 227° |
| 2026-04-28 11:01 | 23.47427 | 116.80570 | 25485 ft | 480 kts | 227° |
| 2026-04-28 11:01 | 23.45057 | 116.78043 | 25485 ft | 481 kts | 224° |
| 2026-04-28 11:01 | 23.42564 | 116.75631 | 25484 ft | 481 kts | 222° |
| 2026-04-28 11:02 | 23.39962 | 116.73344 | 25483 ft | 482 kts | 219° |
| 2026-04-28 11:02 | 23.37301 | 116.71127 | 25476 ft | 473 kts | 219° |
| 2026-04-28 11:02 | 23.34727 | 116.68989 | 25479 ft | 451 kts | 219° |
| 2026-04-28 11:02 | 23.32281 | 116.66959 | 25482 ft | 435 kts | 219° |
| 2026-04-28 11:03 | 23.29835 | 116.64924 | 25481 ft | 447 kts | 219° |
| 2026-04-28 11:03 | 23.27362 | 116.62866 | 25478 ft | 457 kts | 219° |
| 2026-04-28 11:03 | 23.24794 | 116.60731 | 25477 ft | 467 kts | 219° |
| 2026-04-28 11:03 | 23.22201 | 116.58579 | 25476 ft | 475 kts | 219° |
| 2026-04-28 11:04 | 23.19551 | 116.56381 | 25476 ft | 481 kts | 219° |
| 2026-04-28 11:04 | 23.16865 | 116.54156 | 25475 ft | 482 kts | 219° |
| 2026-04-28 11:04 | 23.14228 | 116.51973 | 25475 ft | 481 kts | 219° |
| 2026-04-28 11:04 | 23.11546 | 116.49754 | 25475 ft | 481 kts | 219° |
| 2026-04-28 11:05 | 23.08893 | 116.47558 | 25476 ft | 481 kts | 219° |
| 2026-04-28 11:05 | 23.06226 | 116.45349 | 25475 ft | 481 kts | 219° |
| 2026-04-28 11:05 | 23.03586 | 116.43164 | 25474 ft | 481 kts | 219° |
| 2026-04-28 11:05 | 23.00915 | 116.40952 | 25476 ft | 480 kts | 219° |
| 2026-04-28 11:06 | 22.98269 | 116.38770 | 25474 ft | 481 kts | 219° |
| 2026-04-28 11:06 | 22.95591 | 116.36562 | 25474 ft | 481 kts | 219° |
| 2026-04-28 11:06 | 22.92918 | 116.34356 | 25472 ft | 481 kts | 219° |
| 2026-04-28 11:06 | 22.90282 | 116.32170 | 25473 ft | 481 kts | 219° |
| 2026-04-28 11:07 | 22.87598 | 116.29942 | 25473 ft | 481 kts | 219° |
| 2026-04-28 11:07 | 22.84952 | 116.27743 | 25473 ft | 482 kts | 219° |
| 2026-04-28 11:07 | 22.82296 | 116.25537 | 25473 ft | 482 kts | 219° |
| 2026-04-28 11:07 | 22.79619 | 116.23313 | 25473 ft | 482 kts | 219° |
| 2026-04-28 11:08 | 22.76954 | 116.21100 | 25472 ft | 482 kts | 219° |
| 2026-04-28 11:08 | 22.74312 | 116.18908 | 25473 ft | 482 kts | 219° |
| 2026-04-28 11:08 | 22.71639 | 116.16695 | 25472 ft | 482 kts | 219° |
| 2026-04-28 11:08 | 22.68959 | 116.14500 | 25470 ft | 482 kts | 219° |
| 2026-04-28 11:09 | 22.66301 | 116.12341 | 25465 ft | 482 kts | 219° |
| 2026-04-28 11:09 | 22.63609 | 116.10153 | 25461 ft | 482 kts | 219° |
| 2026-04-28 11:09 | 22.60920 | 116.07967 | 25458 ft | 481 kts | 219° |
| 2026-04-28 11:09 | 22.58267 | 116.05810 | 25456 ft | 481 kts | 219° |
| 2026-04-28 11:10 | 22.55582 | 116.03625 | 25456 ft | 481 kts | 219° |
| 2026-04-28 11:10 | 22.52920 | 116.01457 | 25459 ft | 482 kts | 219° |
| 2026-04-28 11:10 | 22.50218 | 115.99258 | 25460 ft | 483 kts | 219° |
| 2026-04-28 11:10 | 22.47537 | 115.97078 | 25465 ft | 482 kts | 219° |
| 2026-04-28 11:11 | 22.44860 | 115.94898 | 25465 ft | 483 kts | 219° |
| 2026-04-28 11:11 | 22.42191 | 115.92723 | 25466 ft | 483 kts | 219° |
| 2026-04-28 11:11 | 22.39505 | 115.90540 | 25467 ft | 483 kts | 219° |
| 2026-04-28 11:11 | 22.36807 | 115.88350 | 25466 ft | 483 kts | 219° |
| 2026-04-28 11:12 | 22.34130 | 115.86158 | 25466 ft | 483 kts | 221° |
| 2026-04-28 11:12 | 22.31832 | 115.83566 | 25454 ft | 478 kts | 236° |
| 2026-04-28 11:12 | 22.30251 | 115.80415 | 25463 ft | 475 kts | 250° |
| 2026-04-28 11:12 | 22.29476 | 115.76994 | 25467 ft | 474 kts | 263° |